Time;durP1;ratioP1;P1;durP2;ratioP2;P2;SDS_P1;SDS_P2;PMS_P1;PMS_P2;Temp;Humidity;BMP_temperature;BMP_pressure;BME280_temperature;BME280_humidity;BME280_pressure;Samples;Min_cycle;Max_cycle;Signal;HPM_P1;HPM_P2
2022/11/19 00:00:18;;;;;;;18.48;11.70;;;;;;;7.17;91.83;100817.63;5059581;28;20484;-47
2022/11/19 00:02:43;;;;;;;23.10;12.82;;;;;;;7.20;92.19;100820.28;5061554;28;20043;-48
2022/11/19 00:05:08;;;;;;;20.48;12.18;;;;;;;7.23;92.32;100819.56;5062820;28;20032;-47
2022/11/19 00:07:34;;;;;;;16.88;11.60;;;;;;;7.29;91.34;100832.59;5060724;28;20033;-49
2022/11/19 00:09:59;;;;;;;17.55;11.70;;;;;;;7.19;89.84;100820.25;5056525;28;20028;-49
2022/11/19 00:15:08;;;;;;;20.40;11.13;;;;;;;7.15;89.55;100829.47;5060276;28;20126;-47
2022/11/19 00:17:34;;;;;;;18.58;11.80;;;;;;;7.06;89.73;100834.22;5061244;28;20063;-48
2022/11/19 00:19:59;;;;;;;20.20;12.15;;;;;;;7.13;90.49;100835.34;5058778;28;20086;-47
2022/11/19 00:22:24;;;;;;;19.33;11.98;;;;;;;7.04;90.12;100829.81;5060206;28;20043;-49
2022/11/19 00:24:50;;;;;;;16.85;11.40;;;;;;;7.07;90.32;100830.84;5060902;28;20025;-52
2022/11/19 00:27:15;;;;;;;20.45;11.60;;;;;;;7.03;89.57;100833.19;5062285;28;20051;-47
2022/11/19 00:29:40;;;;;;;18.80;12.15;;;;;;;6.95;89.54;100838.88;5060583;28;20047;-47
2022/11/19 00:32:06;;;;;;;17.58;12.07;;;;;;;6.93;89.68;100837.94;5058894;28;20392;-47
2022/11/19 00:34:31;;;;;;;18.65;12.57;;;;;;;6.91;89.55;100831.88;5061365;28;20040;-46
2022/11/19 00:36:56;;;;;;;20.83;12.70;;;;;;;6.68;89.86;100836.03;5061547;28;20037;-46
2022/11/19 00:39:22;;;;;;;19.75;13.00;;;;;;;6.63;89.97;100844.28;5061127;28;20042;-47
2022/11/19 00:41:47;;;;;;;20.77;13.13;;;;;;;6.60;90.16;100847.56;5060017;28;20058;-49
2022/11/19 00:44:12;;;;;;;21.83;14.10;;;;;;;6.40;90.14;100845.81;5059108;28;20056;-47
2022/11/19 00:46:38;;;;;;;24.38;14.45;;;;;;;6.32;91.43;100853.16;5058998;28;20465;-46
2022/11/19 00:49:03;;;;;;;23.23;14.13;;;;;;;6.41;91.52;100848.44;5062881;28;20397;-47
2022/11/19 00:51:30;;;;;;;24.58;15.52;;;;;;;6.34;90.31;100851.53;5059560;28;20111;-48
2022/11/19 00:53:56;;;;;;;27.23;16.08;;;;;;;6.18;90.70;100855.06;5060800;28;20121;-47
2022/11/19 00:56:23;;;;;;;27.25;15.65;;;;;;;6.34;91.44;100848.97;5062862;28;20024;-47
2022/11/19 00:58:50;;;;;;;26.52;15.50;;;;;;;6.29;91.08;100849.56;5063551;28;20046;-47
2022/11/19 01:01:17;;;;;;;24.33;15.20;;;;;;;6.38;91.43;100860.22;5059403;28;20588;-47
2022/11/19 01:03:46;;;;;;;22.10;13.73;;;;;;;6.48;90.92;100852.13;5058135;28;20103;-47
2022/11/19 01:06:14;;;;;;;21.70;13.77;;;;;;;6.52;90.33;100859.16;5061591;28;20111;-48
2022/11/19 01:08:39;;;;;;;22.60;13.43;;;;;;;6.58;90.50;100859.41;5061269;28;20033;-45
2022/11/19 01:11:10;;;;;;;23.00;13.60;;;;;;;6.55;88.99;100864.41;5058016;28;20032;-47
2022/11/19 01:13:36;;;;;;;21.92;13.95;;;;;;;6.40;88.82;100871.38;5060827;28;20493;-48
2022/11/19 01:16:07;;;;;;;22.33;13.40;;;;;;;6.42;89.47;100875.72;5056338;28;20038;-48
2022/11/19 01:18:34;;;;;;;21.70;13.68;;;;;;;6.35;89.10;100873.72;5061165;28;20036;-47
2022/11/19 01:21:00;;;;;;;21.67;13.98;;;;;;;6.24;89.29;100872.34;5061153;28;20035;-46
2022/11/19 01:23:25;;;;;;;21.90;13.57;;;;;;;6.24;89.32;100879.13;5060337;28;20036;-47
2022/11/19 01:25:51;;;;;;;25.55;14.38;;;;;;;6.25;89.58;100878.31;5060098;28;20035;-47
2022/11/19 01:28:16;;;;;;;22.27;14.65;;;;;;;6.05;89.20;100878.28;5061884;28;20036;-47
2022/11/19 01:30:43;;;;;;;23.13;13.60;;;;;;;6.13;89.78;100884.66;5061059;28;20033;-47
2022/11/19 01:33:08;;;;;;;21.20;13.63;;;;;;;6.26;90.03;100885.22;5059988;28;20063;-49
2022/11/19 01:35:34;;;;;;;20.92;14.05;;;;;;;6.27;88.89;100900.59;5058997;28;20072;-47
2022/11/19 01:38:01;;;;;;;22.40;13.15;;;;;;;6.21;88.56;100892.66;5061094;28;20424;-48
2022/11/19 01:40:27;;;;;;;18.58;12.48;;;;;;;6.15;88.68;100895.78;5054341;28;20068;-47
2022/11/19 01:42:55;;;;;;;20.30;12.50;;;;;;;6.09;88.77;100894.63;5058941;28;20043;-48
2022/11/19 01:45:23;;;;;;;19.33;12.93;;;;;;;6.12;89.48;100895.63;5056718;28;20067;-46
2022/11/19 01:47:51;;;;;;;20.00;12.65;;;;;;;6.02;89.49;100896.03;5062054;28;20032;-49
2022/11/19 01:50:17;;;;;;;21.27;12.65;;;;;;;6.05;89.85;100897.84;5058833;28;20044;-45
2022/11/19 01:52:42;;;;;;;20.02;12.73;;;;;;;6.12;89.19;100895.63;5057865;28;20036;-49
2022/11/19 01:55:08;;;;;;;17.30;11.77;;;;;;;6.07;88.41;100915.00;5059080;28;20146;-46
2022/11/19 01:57:38;;;;;;;19.05;11.30;;;;;;;6.04;88.46;100908.84;5059325;28;20551;-47
2022/11/19 02:00:04;;;;;;;19.27;12.00;;;;;;;6.03;88.34;100919.88;5057945;28;20039;-48
2022/11/19 02:02:31;;;;;;;17.75;11.18;;;;;;;5.98;88.31;100917.09;5060791;28;20107;-48
2022/11/19 02:04:57;;;;;;;16.35;11.45;;;;;;;5.96;88.90;100916.16;5059779;28;20626;-48
2022/11/19 02:07:27;;;;;;;15.48;11.40;;;;;;;5.91;88.21;100918.50;5058231;28;20127;-48
2022/11/19 02:09:54;;;;;;;19.15;12.18;;;;;;;5.81;89.15;100923.91;5061364;28;20531;-47
2022/11/19 02:13:01;;;;;;;17.15;12.02;;;;;;;5.92;89.91;100927.03;5058437;28;20029;-47
2022/11/19 02:15:27;;;;;;;20.02;12.02;;;;;;;5.85;88.98;100922.41;5047086;28;20040;-48
2022/11/19 02:18:02;;;;;;;17.40;11.65;;;;;;;5.83;89.53;100929.13;5060270;28;20466;-47
2022/11/19 02:20:43;;;;;;;17.75;11.25;;;;;;;5.78;90.31;100923.78;5060091;28;20078;-49
2022/11/19 02:23:42;;;;;;;22.08;12.07;;;;;;;5.87;89.72;100925.88;5059152;28;20024;-48
2022/11/19 02:26:25;;;;;;;;;;;;;;;5.84;89.34;100936.84;5061279;28;20032;-44
2022/11/19 02:28:58;;;;;;;15.93;10.77;;;;;;;5.65;89.59;100921.44;5060733;28;20381;-48
2022/11/19 02:31:35;;;;;;;16.58;11.10;;;;;;;5.73;89.92;100920.13;5060874;28;20033;-46
2022/11/19 02:34:13;;;;;;;15.52;11.18;;;;;;;5.61;88.82;100932.28;5059212;28;20024;-46
2022/11/19 02:36:54;;;;;;;15.88;11.13;;;;;;;5.58;88.98;100933.03;5057961;28;20032;-48
2022/11/19 02:39:29;;;;;;;15.07;11.35;;;;;;;5.55;88.69;100932.00;5059884;28;20439;-48
2022/11/19 02:42:05;;;;;;;14.65;10.80;;;;;;;5.44;89.28;100933.13;5060849;28;20043;-48
2022/11/19 02:44:57;;;;;;;15.18;10.63;;;;;;;5.24;89.66;100938.13;5058701;28;20377;-47
2022/11/19 02:47:35;;;;;;;15.80;10.65;;;;;;;5.16;89.96;100939.41;5064126;28;20111;-48
2022/11/19 02:50:13;;;;;;;15.68;10.60;;;;;;;5.16;89.62;100941.97;5063745;28;20059;-48
2022/11/19 02:52:41;;;;;;;15.50;10.85;;;;;;;5.13;89.32;100944.34;5064531;28;20040;-48
2022/11/19 02:55:09;;;;;;;14.93;10.63;;;;;;;5.13;88.92;100944.34;5064624;28;20111;-47
2022/11/19 02:57:35;;;;;;;15.68;10.70;;;;;;;5.03;88.74;100945.53;5061720;28;20052;-48
2022/11/19 03:06:10;;;;;;;18.00;11.25;;;;;;;5.20;88.12;100958.28;5046479;28;20137;-47
2022/11/19 03:08:35;;;;;;;16.13;11.50;;;;;;;5.02;87.54;100960.75;5062329;28;20028;-47
2022/11/19 03:11:01;;;;;;;18.27;11.85;;;;;;;5.01;88.48;100956.44;5065279;28;20055;-47
2022/11/19 03:16:40;;;;;;;17.58;12.25;;;;;;;5.00;88.96;100959.81;5064152;28;20062;-46
2022/11/19 03:19:18;;;;;;;18.20;12.85;;;;;;;4.96;87.85;100965.53;5061983;28;20104;-46
2022/11/19 03:21:52;;;;;;;18.60;12.55;;;;;;;4.96;87.39;100968.94;5061470;28;20127;-48
2022/11/19 03:24:42;;;;;;;19.98;12.75;;;;;;;4.96;87.91;100961.31;5062298;28;20115;-50
2022/11/19 03:27:26;;;;;;;18.20;12.82;;;;;;;5.01;87.93;100964.09;5061869;28;20032;-49
2022/11/19 03:29:56;;;;;;;18.25;12.80;;;;;;;5.00;87.78;100962.34;5063710;28;20039;-47
2022/11/19 03:32:26;;;;;;;19.13;12.98;;;;;;;5.02;87.26;100964.16;5064644;28;20122;-47
2022/11/19 03:34:58;;;;;;;18.20;12.65;;;;;;;5.02;87.65;100968.38;5062138;28;20123;-49
2022/11/19 03:37:27;;;;;;;19.05;13.23;;;;;;;5.00;88.20;100967.44;5063207;28;20116;-46
2022/11/19 03:39:57;;;;;;;17.52;12.95;;;;;;;5.01;87.58;100970.06;5062218;28;20358;-48
2022/11/19 03:42:25;;;;;;;20.20;13.48;;;;;;;5.09;87.82;100971.31;5062546;28;20040;-49
2022/11/19 03:44:57;;;;;;;19.65;14.05;;;;;;;5.01;87.01;100967.50;5062358;28;20565;-47
2022/11/19 03:47:29;;;;;;;18.35;13.18;;;;;;;5.03;86.97;100965.03;5062555;28;20039;-46
2022/11/19 03:50:01;;;;;;;19.13;13.15;;;;;;;5.01;86.95;100970.06;5062546;28;20037;-47
2022/11/19 03:52:26;;;;;;;20.25;13.40;;;;;;;4.91;86.64;100966.94;5061239;28;20029;-46
2022/11/19 03:54:52;;;;;;;21.67;14.05;;;;;;;4.89;87.07;100966.88;5058217;28;20038;-46
2022/11/19 03:57:20;;;;;;;17.15;13.10;;;;;;;4.93;87.07;100973.91;5060476;28;20107;-44
2022/11/19 03:59:46;;;;;;;21.23;14.02;;;;;;;4.93;86.78;100978.13;5062211;28;20027;-48
2022/11/19 04:02:12;;;;;;;19.88;13.85;;;;;;;4.84;86.60;100974.28;5061937;28;20024;-45
2022/11/19 04:04:38;;;;;;;21.20;14.30;;;;;;;4.66;86.84;100975.84;5060839;28;20049;-46
2022/11/19 04:07:03;;;;;;;20.75;14.02;;;;;;;4.71;87.70;100981.19;5063526;28;20090;-47
2022/11/19 04:09:29;;;;;;;20.77;14.15;;;;;;;4.71;87.17;100982.06;5062014;28;20016;-48
2022/11/19 04:11:54;;;;;;;20.25;14.60;;;;;;;4.73;87.36;100988.13;5062149;28;20048;-48
2022/11/19 04:14:19;;;;;;;22.02;14.25;;;;;;;4.71;86.75;100984.63;5064416;28;20123;-47
2022/11/19 04:16:45;;;;;;;22.17;14.95;;;;;;;4.67;87.27;100992.00;5062603;28;20025;-48
2022/11/19 04:19:11;;;;;;;25.80;16.35;;;;;;;4.59;86.28;100986.50;5061474;28;20079;-47
2022/11/19 04:21:36;;;;;;;26.25;17.23;;;;;;;4.65;87.10;100991.94;5059897;28;20040;-47
2022/11/19 04:24:01;;;;;;;25.10;16.60;;;;;;;4.65;86.86;100999.56;5063088;28;20052;-46
2022/11/19 04:26:27;;;;;;;23.20;16.83;;;;;;;4.67;86.46;101000.56;5063087;28;20029;-47
2022/11/19 04:28:52;;;;;;;24.63;16.70;;;;;;;4.74;86.22;101005.19;5061181;28;20040;-47
2022/11/19 04:31:18;;;;;;;24.67;17.25;;;;;;;4.74;85.42;100997.53;5061272;28;20078;-48
2022/11/19 04:33:43;;;;;;;24.23;17.02;;;;;;;4.76;85.48;101011.22;5061438;28;20029;-47
2022/11/19 04:36:09;;;;;;;23.70;16.52;;;;;;;4.78;84.89;101003.66;5062291;28;20029;-45
2022/11/19 04:38:34;;;;;;;24.17;17.50;;;;;;;4.72;84.09;101014.38;5061697;28;20044;-46
2022/11/19 04:40:59;;;;;;;28.30;17.35;;;;;;;4.73;85.14;101018.72;5063911;28;20661;-48
2022/11/19 04:43:25;;;;;;;25.17;18.00;;;;;;;4.71;84.60;101020.28;5057684;28;20064;-46
2022/11/19 04:45:50;;;;;;;28.02;18.73;;;;;;;4.72;84.44;101023.69;5060307;28;20397;-48
2022/11/19 04:48:16;;;;;;;26.58;19.20;;;;;;;4.66;83.65;101021.69;5062076;28;20028;-48
2022/11/19 04:50:41;;;;;;;25.35;18.58;;;;;;;4.59;84.52;101029.81;5063770;28;20028;-46
2022/11/19 04:53:06;;;;;;;29.23;19.02;;;;;;;4.56;84.76;101024.56;5059964;28;20043;-47
2022/11/19 04:55:32;;;;;;;24.55;17.70;;;;;;;4.40;84.86;101029.59;5059477;28;20039;-47
2022/11/19 04:57:57;;;;;;;29.50;19.00;;;;;;;4.47;84.93;101029.13;5061991;28;20036;-46
2022/11/19 05:00:22;;;;;;;26.17;18.98;;;;;;;4.39;83.94;101025.28;5061290;28;20028;-47
2022/11/19 05:02:48;;;;;;;27.95;19.55;;;;;;;4.49;84.78;101035.16;5063511;28;20025;-46
2022/11/19 05:05:13;;;;;;;26.63;18.95;;;;;;;4.61;85.19;101043.53;5059700;28;20036;-46
2022/11/19 05:07:38;;;;;;;27.35;19.05;;;;;;;4.66;85.20;101052.25;5061404;28;20028;-47
2022/11/19 05:10:04;;;;;;;27.08;19.02;;;;;;;4.59;83.15;101047.63;5062234;28;20040;-46
2022/11/19 05:12:30;;;;;;;28.92;19.83;;;;;;;4.56;83.02;101050.03;5062677;28;20028;-47
2022/11/19 05:14:55;;;;;;;27.88;19.25;;;;;;;4.48;83.36;101049.56;5060465;28;20024;-48
2022/11/19 05:17:20;;;;;;;27.52;19.38;;;;;;;4.44;83.31;101047.69;5062056;28;20036;-47
2022/11/19 05:19:46;;;;;;;28.65;19.42;;;;;;;4.45;83.12;101058.72;5060551;28;20039;-46
2022/11/19 05:22:11;;;;;;;29.45;20.35;;;;;;;4.50;83.07;101058.19;5060927;28;20033;-48
2022/11/19 05:24:36;;;;;;;28.13;20.10;;;;;;;4.50;83.21;101057.31;5059619;28;20021;-48
2022/11/19 05:27:02;;;;;;;32.38;21.08;;;;;;;4.56;83.22;101052.56;5062029;28;20028;-47
2022/11/19 05:29:27;;;;;;;28.25;20.08;;;;;;;4.53;82.72;101065.13;5062638;28;20142;-46
2022/11/19 05:31:53;;;;;;;29.40;20.80;;;;;;;4.50;82.59;101077.69;5061949;28;20377;-47
2022/11/19 05:34:18;;;;;;;27.52;19.23;;;;;;;4.49;82.32;101069.19;5056708;28;20067;-49
2022/11/19 05:36:43;;;;;;;28.23;20.88;;;;;;;4.36;82.40;101073.47;5060261;28;20024;-46
2022/11/19 05:39:09;;;;;;;26.20;20.10;;;;;;;4.28;82.20;101073.06;5060707;28;20025;-47
2022/11/19 05:41:34;;;;;;;30.35;20.80;;;;;;;4.21;83.20;101069.28;5060179;28;20056;-48
2022/11/19 05:43:59;;;;;;;29.52;20.55;;;;;;;4.28;82.85;101073.94;5062999;28;20056;-48
2022/11/19 05:46:25;;;;;;;27.00;20.65;;;;;;;4.20;82.19;101080.28;5048295;28;20388;-48
2022/11/19 05:48:50;;;;;;;28.77;20.40;;;;;;;4.16;82.61;101080.88;5063233;28;20040;-47
2022/11/19 05:51:16;;;;;;;29.58;21.60;;;;;;;4.21;83.14;101076.06;5064527;28;20556;-47
2022/11/19 05:53:42;;;;;;;30.67;21.13;;;;;;;4.26;82.33;101079.75;5060276;28;20025;-48
2022/11/19 05:56:08;;;;;;;29.85;22.55;;;;;;;4.14;81.96;101084.13;5061921;28;20112;-47
2022/11/19 05:58:33;;;;;;;29.60;20.95;;;;;;;4.10;82.98;101080.53;5061494;28;20112;-44
2022/11/19 06:00:59;;;;;;;29.13;20.92;;;;;;;4.20;83.65;101093.00;5064995;28;20154;-48
2022/11/19 06:03:24;;;;;;;29.98;20.55;;;;;;;4.23;83.62;101094.81;5061065;28;20043;-47
2022/11/19 06:05:50;;;;;;;29.65;21.45;;;;;;;4.27;82.82;101084.03;5066144;28;20373;-49
2022/11/19 06:08:16;;;;;;;29.25;21.23;;;;;;;4.35;82.89;101092.97;5063663;28;20409;-46
2022/11/19 06:10:41;;;;;;;29.48;21.67;;;;;;;4.24;81.92;101091.47;5063626;28;20119;-47
2022/11/19 06:13:07;;;;;;;29.63;21.73;;;;;;;4.17;82.18;101104.66;5063029;28;20032;-48
2022/11/19 06:15:32;;;;;;;30.58;21.83;;;;;;;4.24;82.70;101102.53;5064061;28;20056;-46
2022/11/19 06:17:57;;;;;;;30.65;21.80;;;;;;;4.21;82.51;101104.94;5065163;28;20029;-46
2022/11/19 06:20:23;;;;;;;31.67;22.65;;;;;;;4.15;83.27;101103.69;5060174;28;20364;-47
2022/11/19 06:22:48;;;;;;;29.65;22.13;;;;;;;4.11;82.82;101125.53;5065255;28;20070;-46
2022/11/19 06:25:13;;;;;;;31.80;23.15;;;;;;;4.09;83.27;101126.25;5069206;28;20537;-48
2022/11/19 06:27:39;;;;;;;33.30;23.90;;;;;;;4.09;82.30;101124.59;5069634;28;20051;-48
2022/11/19 06:30:06;;;;;;;32.22;23.50;;;;;;;4.07;82.08;101131.25;5066832;28;20086;-47
2022/11/19 06:32:31;;;;;;;33.65;23.60;;;;;;;4.12;81.99;101129.84;5068914;28;20480;-46
2022/11/19 06:34:57;;;;;;;32.03;23.73;;;;;;;4.10;81.74;101135.63;5067232;28;20086;-48
2022/11/19 06:37:22;;;;;;;35.08;23.77;;;;;;;4.11;81.26;101140.81;5065909;28;20085;-49
2022/11/19 06:39:48;;;;;;;35.17;24.42;;;;;;;4.13;81.19;101141.78;5067140;28;22077;-48
2022/11/19 06:44:57;;;;;;;37.00;26.00;;;;;;;4.01;81.04;101151.25;5068321;28;20116;-47
2022/11/19 06:47:22;;;;;;;35.30;24.83;;;;;;;3.98;81.52;101149.38;5064577;28;20103;-46
2022/11/19 06:49:48;;;;;;;35.50;25.80;;;;;;;3.97;81.40;101144.22;5066310;28;20067;-47
2022/11/19 06:52:13;;;;;;;34.55;24.35;;;;;;;4.00;81.88;101137.66;5066647;28;20393;-47
2022/11/19 06:54:39;;;;;;;33.65;23.65;;;;;;;3.97;81.42;101140.00;5068635;28;20107;-48
2022/11/19 06:57:04;;;;;;;35.33;24.45;;;;;;;4.01;81.83;101149.59;5066101;28;20064;-47
2022/11/19 06:59:30;;;;;;;35.60;24.20;;;;;;;3.97;81.90;101150.19;5068856;28;20021;-47
2022/11/19 07:01:55;;;;;;;35.50;24.08;;;;;;;4.00;81.61;101149.47;5066892;28;20040;-47
2022/11/19 07:04:20;;;;;;;35.92;25.17;;;;;;;3.87;82.13;101152.09;5065665;28;20140;-48
2022/11/19 07:06:46;;;;;;;36.05;24.73;;;;;;;3.95;82.48;101158.53;5065028;28;20439;-47
2022/11/19 07:09:12;;;;;;;33.95;23.73;;;;;;;4.01;81.66;101161.44;5067435;28;20021;-48
2022/11/19 07:11:37;;;;;;;33.78;23.70;;;;;;;4.01;82.01;101166.53;5068189;28;20032;-47
2022/11/19 07:14:03;;;;;;;35.58;24.08;;;;;;;4.11;81.86;101163.72;5069692;28;20075;-45
2022/11/19 07:16:33;;;;;;;36.00;24.52;;;;;;;4.16;82.07;101169.94;5065610;28;20909;-48
2022/11/19 07:19:01;;;;;;;37.35;25.13;;;;;;;4.10;80.49;101169.59;5067520;28;20449;-48
2022/11/19 07:21:28;;;;;;;35.28;24.27;;;;;;;3.93;80.64;101175.34;5068126;28;20029;-48
2022/11/19 07:23:55;;;;;;;36.35;24.33;;;;;;;3.86;81.06;101175.78;5067890;28;20028;-47
2022/11/19 07:26:20;;;;;;;37.30;24.80;;;;;;;3.76;80.96;101171.78;5066822;28;20032;-48
2022/11/19 07:28:46;;;;;;;36.80;24.92;;;;;;;3.76;81.47;101177.78;5064377;28;20032;-46
2022/11/19 07:31:11;;;;;;;40.35;25.20;;;;;;;3.71;80.89;101186.78;5067705;28;20428;-46
2022/11/19 07:33:38;;;;;;;39.70;26.15;;;;;;;3.68;81.07;101186.59;5067210;28;20020;-46
2022/11/19 07:36:05;;;;;;;38.63;26.02;;;;;;;3.63;80.01;101198.16;5065659;28;20543;-48
2022/11/19 07:38:31;;;;;;;39.80;25.08;;;;;;;3.63;80.96;101200.69;5064578;28;20029;-48
2022/11/19 07:40:56;;;;;;;39.90;25.55;;;;;;;3.62;80.32;101191.31;5068719;28;20439;-49
2022/11/19 07:43:22;;;;;;;39.33;25.55;;;;;;;3.57;80.19;101202.84;5071355;28;20033;-46
2022/11/19 07:45:47;;;;;;;39.72;26.55;;;;;;;3.47;79.99;101205.63;5068360;28;20511;-47
2022/11/19 07:48:14;;;;;;;37.80;24.98;;;;;;;3.48;81.10;101213.34;5068288;28;20071;-48
2022/11/19 07:50:40;;;;;;;39.10;25.50;;;;;;;3.50;81.13;101210.91;5066987;28;20032;-48
2022/11/19 07:53:06;;;;;;;38.45;24.98;;;;;;;3.49;80.98;101204.06;5066790;28;20086;-48
2022/11/19 07:55:31;;;;;;;37.28;24.20;;;;;;;3.56;81.50;101207.84;5063939;28;20515;-46
2022/11/19 07:57:57;;;;;;;38.40;24.90;;;;;;;3.59;81.09;101221.66;5061137;28;20060;-46
2022/11/19 08:00:23;;;;;;;38.20;24.88;;;;;;;3.65;81.30;101221.16;5068225;28;20489;-46
2022/11/19 08:02:49;;;;;;;39.40;25.20;;;;;;;3.65;80.09;101219.47;5066732;28;20037;-46
2022/11/19 08:05:15;;;;;;;39.63;26.15;;;;;;;3.62;80.06;101215.88;5065361;28;20037;-47
2022/11/19 08:07:40;;;;;;;40.85;24.67;;;;;;;3.59;80.42;101221.66;5065847;28;20421;-45
2022/11/19 08:10:07;;;;;;;39.33;25.52;;;;;;;3.54;79.74;101220.47;5064550;28;20118;-43
2022/11/19 08:12:32;;;;;;;40.30;25.35;;;;;;;3.45;79.88;101223.31;5067006;28;20119;-50
2022/11/19 08:14:58;;;;;;;36.67;24.92;;;;;;;3.49;80.33;101232.91;5071234;28;20103;-49
2022/11/19 08:20:07;;;;;;;40.13;25.23;;;;;;;3.49;79.99;101238.00;5068940;28;20051;-46
2022/11/19 08:22:35;;;;;;;39.33;25.23;;;;;;;3.57;80.17;101237.56;5070539;28;20032;-47
2022/11/19 08:25:01;;;;;;;41.72;25.40;;;;;;;3.68;81.13;101234.91;5068018;28;20032;-47
2022/11/19 08:27:27;;;;;;;37.15;23.98;;;;;;;3.75;80.25;101246.34;5069161;28;20047;-47
2022/11/19 08:29:52;;;;;;;37.92;24.58;;;;;;;3.76;78.60;101243.00;5069641;28;20064;-45
2022/11/19 08:32:18;;;;;;;36.78;24.30;;;;;;;3.76;79.51;101246.47;5069842;28;20028;-48
2022/11/19 08:34:43;;;;;;;38.22;24.08;;;;;;;3.84;79.90;101243.50;5069793;28;20052;-46
2022/11/19 08:37:10;;;;;;;40.22;25.65;;;;;;;3.90;79.30;101247.28;5066896;28;20123;-47
2022/11/19 08:39:35;;;;;;;37.80;24.10;;;;;;;3.94;79.70;101244.16;5062681;28;20040;-47
2022/11/19 08:44:45;;;;;;;39.08;24.83;;;;;;;4.00;78.51;101253.78;5066946;28;20062;-48
2022/11/19 08:47:10;;;;;;;36.17;24.00;;;;;;;3.91;78.56;101255.81;5064093;28;20044;-45
2022/11/19 08:49:35;;;;;;;37.38;24.90;;;;;;;3.86;78.44;101249.56;5066500;28;20066;-46
2022/11/19 08:52:01;;;;;;;34.47;24.17;;;;;;;3.83;78.08;101250.25;5061426;28;20056;-44
2022/11/19 08:54:26;;;;;;;37.28;24.42;;;;;;;3.73;78.66;101260.63;5065011;28;20043;-45
2022/11/19 08:56:52;;;;;;;37.47;24.17;;;;;;;3.65;78.08;101266.94;5066866;28;20033;-43
2022/11/19 08:59:17;;;;;;;35.63;23.58;;;;;;;3.65;78.96;101270.34;5069201;28;20568;-46
2022/11/19 09:01:42;;;;;;;35.47;23.80;;;;;;;3.72;79.15;101259.75;5063517;28;20032;-44
2022/11/19 09:04:08;;;;;;;33.90;24.00;;;;;;;3.61;78.60;101263.31;5063268;28;20103;-47
2022/11/19 09:06:34;;;;;;;36.17;24.10;;;;;;;3.56;78.51;101262.13;5063881;28;20040;-47
2022/11/19 09:09:00;;;;;;;37.75;23.50;;;;;;;3.60;78.88;101268.31;5067947;28;20048;-48
2022/11/19 09:11:25;;;;;;;34.63;22.85;;;;;;;3.57;79.12;101273.19;5062059;28;20037;-46
2022/11/19 09:13:50;;;;;;;35.60;23.00;;;;;;;3.56;79.01;101274.84;5068197;28;20024;-48
2022/11/19 09:16:16;;;;;;;35.95;24.20;;;;;;;3.52;79.31;101270.38;5062041;28;20066;-47
2022/11/19 09:18:41;;;;;;;35.88;23.60;;;;;;;3.56;79.21;101273.97;5066703;28;20036;-45
2022/11/19 09:21:09;;;;;;;35.47;23.10;;;;;;;3.58;79.60;101278.38;5063864;28;20037;-45
2022/11/19 09:23:34;;;;;;;37.88;24.98;;;;;;;3.54;79.53;101281.50;5065820;28;20423;-49
2022/11/19 09:26:02;;;;;;;34.13;22.95;;;;;;;3.54;79.44;101275.53;5064480;28;20127;-47
2022/11/19 09:28:28;;;;;;;33.55;22.92;;;;;;;3.54;79.42;101276.41;5065773;28;20035;-47
2022/11/19 09:31:00;;;;;;;35.30;23.45;;;;;;;3.60;79.14;101284.44;5064155;28;20126;-46
2022/11/19 09:33:27;;;;;;;33.83;23.10;;;;;;;3.61;79.48;101285.31;5063136;28;20037;-50
2022/11/19 09:35:53;;;;;;;32.38;22.58;;;;;;;3.65;78.86;101284.72;5063911;28;20120;-49
2022/11/19 09:38:18;;;;;;;34.35;22.48;;;;;;;3.70;78.49;101288.41;5064720;28;20495;-46
2022/11/19 09:40:50;;;;;;;33.47;21.85;;;;;;;3.71;78.46;101288.53;5066851;28;20024;-46
2022/11/19 09:43:42;;;;;;;34.67;21.70;;;;;;;3.70;77.98;101294.41;5069259;28;20028;-50
2022/11/19 09:46:30;;;;;;;33.03;22.10;;;;;;;3.69;78.28;101302.78;5068009;28;20698;-47
2022/11/19 09:49:02;;;;;;;34.37;22.57;;;;;;;3.59;78.21;101308.09;5057089;28;20496;-48
2022/11/19 09:51:30;;;;;;;33.72;22.05;;;;;;;3.61;79.33;101316.69;5067268;28;20283;-47
2022/11/19 09:54:19;;;;;;;31.20;22.35;;;;;;;3.66;79.11;101315.34;5069485;28;20043;-48
2022/11/19 09:56:46;;;;;;;32.67;22.00;;;;;;;3.62;77.97;101318.47;5065675;28;20550;-49
2022/11/19 09:59:26;;;;;;;33.30;22.45;;;;;;;3.66;78.09;101324.63;5063177;28;20028;-48
2022/11/19 10:01:52;;;;;;;33.17;23.08;;;;;;;3.68;78.33;101326.47;5063466;28;20021;-49
2022/11/19 10:04:22;;;;;;;33.90;21.75;;;;;;;3.67;77.64;101326.38;5061763;28;20063;-49
2022/11/19 10:07:07;;;;;;;34.10;23.05;;;;;;;3.63;77.38;101330.38;5062850;28;20128;-50
2022/11/19 10:10:06;;;;;;;32.35;21.08;;;;;;;3.66;77.74;101333.13;5060439;28;20465;-51
2022/11/19 10:12:53;;;;;;;31.35;20.65;;;;;;;3.75;78.43;101332.81;5060973;28;20045;-63
2022/11/19 10:15:34;;;;;;;29.65;20.13;;;;;;;3.78;77.18;101329.59;5065045;28;20623;-49
2022/11/19 10:18:32;;;;;;;30.00;20.50;;;;;;;3.71;76.63;101333.44;5063640;28;20562;-49
2022/11/19 10:21:36;;;;;;;30.67;20.55;;;;;;;3.67;76.89;101334.88;5064093;28;20424;-49
2022/11/19 10:24:16;;;;;;;30.33;20.77;;;;;;;3.58;76.13;101334.31;5057955;28;20036;-49
2022/11/19 10:26:47;;;;;;;30.38;20.30;;;;;;;3.53;76.42;101338.22;5063146;28;20449;-47
2022/11/19 10:29:19;;;;;;;31.13;21.02;;;;;;;3.54;76.61;101342.53;5060199;28;20493;-50
2022/11/19 10:31:47;;;;;;;32.78;20.98;;;;;;;3.54;76.15;101349.28;5063669;28;20028;-48
2022/11/19 10:34:22;;;;;;;30.17;20.08;;;;;;;3.52;76.14;101355.91;5060857;28;20385;-48
2022/11/19 10:37:16;;;;;;;30.98;20.27;;;;;;;3.57;76.61;101355.44;5062851;28;20029;-49
2022/11/19 10:40:27;;;;;;;30.50;20.48;;;;;;;3.51;76.00;101360.13;5063360;28;20028;-47
2022/11/19 10:42:57;;;;;;;32.13;20.23;;;;;;;3.55;76.87;101351.91;5060378;28;20040;-49
2022/11/19 10:45:26;;;;;;;32.22;21.00;;;;;;;3.50;76.16;101351.59;5063183;28;20025;-47
2022/11/19 10:48:36;;;;;;;34.00;21.15;;;;;;;3.50;75.76;101343.97;5060780;28;20028;-48
2022/11/19 10:51:10;;;;;;;31.92;20.08;;;;;;;3.53;76.26;101345.88;5061614;28;20052;-47
2022/11/19 10:53:38;;;;;;;33.33;20.98;;;;;;;3.58;75.81;101346.13;5062503;28;20032;-51
2022/11/19 10:56:11;;;;;;;32.10;20.10;;;;;;;3.62;75.73;101343.00;5063564;28;20028;-48
2022/11/19 10:58:44;;;;;;;28.20;19.90;;;;;;;3.46;75.29;101346.25;5061983;28;21055;-49
2022/11/19 11:01:33;;;;;;;28.88;19.08;;;;;;;3.57;76.73;101347.78;5063354;28;20028;-49
2022/11/19 11:04:18;;;;;;;28.13;19.17;;;;;;;3.50;76.12;101349.06;5063076;28;20523;-48
2022/11/19 11:06:54;;;;;;;29.05;17.98;;;;;;;3.54;75.77;101350.16;5065385;28;20033;-47
2022/11/19 11:09:41;;;;;;;28.33;18.67;;;;;;;3.44;74.57;101348.69;5064534;28;20025;-48
2022/11/19 11:14:59;;;;;;;28.13;18.08;;;;;;;3.38;75.92;101338.13;5066158;28;20051;-47
2022/11/19 11:17:30;;;;;;;27.55;17.40;;;;;;;3.45;75.26;101352.97;5065212;28;20032;-49
2022/11/19 11:20:06;;;;;;;26.60;17.02;;;;;;;3.46;74.79;101352.22;5066675;28;20048;-49
2022/11/19 11:22:34;;;;;;;25.63;18.02;;;;;;;3.40;74.47;101350.94;5065381;28;20029;-49
2022/11/19 11:25:00;;;;;;;27.75;17.38;;;;;;;3.48;75.44;101344.69;5063685;28;20040;-50
2022/11/19 11:27:32;;;;;;;25.58;17.08;;;;;;;3.51;75.20;101347.41;5066388;28;20055;-47
2022/11/19 11:30:12;;;;;;;26.58;17.40;;;;;;;3.47;75.56;101341.25;5067103;28;20572;-46
2022/11/19 11:32:39;;;;;;;27.30;18.00;;;;;;;3.43;74.79;101339.28;5062529;28;20033;-47
2022/11/19 11:35:25;;;;;;;24.05;17.17;;;;;;;3.38;75.22;101335.56;5067976;28;20162;-48
2022/11/19 11:37:51;;;;;;;23.80;16.15;;;;;;;3.39;75.71;101334.78;5065775;28;20032;-48
2022/11/19 11:40:23;;;;;;;23.30;15.60;;;;;;;3.37;74.33;101330.41;5064603;28;20097;-48
2022/11/19 11:42:50;;;;;;;23.17;15.63;;;;;;;3.19;73.81;101330.97;5066891;28;20353;-48
2022/11/19 11:45:29;;;;;;;24.55;15.68;;;;;;;3.13;74.35;101340.72;5066877;28;20039;-51
2022/11/19 11:47:55;;;;;;;21.17;15.00;;;;;;;3.15;74.74;101335.75;5066098;28;20071;-49